createdAt,value
2019-02-11T00:00:40.333Z,100.0
2019-02-11T00:01:41.790Z,100.0
2019-02-11T00:02:43.181Z,100.0
2019-02-11T00:03:44.564Z,100.0
2019-02-11T00:04:45.949Z,100.0
2019-02-11T00:05:47.337Z,100.0
2019-02-11T00:06:48.722Z,100.0
2019-02-11T00:07:50.102Z,100.0
2019-02-11T00:08:51.492Z,100.0
2019-02-11T00:09:52.872Z,100.0
2019-02-11T00:10:54.261Z,100.0
2019-02-11T00:11:55.645Z,100.0
2019-02-11T00:12:57.030Z,100.0
2019-02-11T00:13:58.406Z,100.0
2019-02-11T00:14:59.796Z,100.0
2019-02-11T00:16:01.181Z,100.0
2019-02-11T00:17:02.563Z,100.0
2019-02-11T00:18:03.945Z,100.0
2019-02-11T00:19:05.328Z,100.0
2019-02-11T00:20:06.713Z,100.0
2019-02-11T00:21:08.095Z,100.0
2019-02-11T00:22:09.475Z,100.0
2019-02-11T00:23:10.855Z,100.0
2019-02-11T00:24:13.769Z,100.0
2019-02-11T00:25:13.583Z,100.0
2019-02-11T00:26:14.969Z,100.0
2019-02-11T00:27:16.352Z,100.0
2019-02-11T00:28:17.732Z,100.0
2019-02-11T00:29:19.112Z,100.0
2019-02-11T00:30:20.497Z,100.0
2019-02-11T00:31:21.938Z,100.0
2019-02-11T00:32:23.227Z,100.0
2019-02-11T00:33:24.611Z,100.0
2019-02-11T00:34:26.001Z,100.0
2019-02-11T00:35:27.379Z,100.0
2019-02-11T00:36:28.760Z,100.0
2019-02-11T00:37:30.149Z,100.0
2019-02-11T00:38:31.530Z,100.0
2019-02-11T00:39:32.921Z,100.0
2019-02-11T00:40:34.304Z,100.0
2019-02-11T00:41:35.689Z,100.0
2019-02-11T00:42:37.074Z,100.0
2019-02-11T00:43:38.459Z,100.0
2019-02-11T00:44:39.845Z,100.0
2019-02-11T00:45:41.230Z,100.0
2019-02-11T00:46:42.618Z,100.0
2019-02-11T00:47:44.007Z,100.0
2019-02-11T00:48:45.389Z,100.0
2019-02-11T00:49:46.875Z,100.0
2019-02-11T00:50:48.297Z,100.0
2019-02-11T00:51:49.679Z,100.0
2019-02-11T00:52:51.064Z,100.0
2019-02-11T00:53:52.455Z,100.0
2019-02-11T00:54:53.841Z,100.0
2019-02-11T00:55:55.226Z,100.0
2019-02-11T00:56:56.611Z,100.0
2019-02-11T00:57:57.998Z,100.0
2019-02-11T00:58:59.384Z,100.0
2019-02-11T01:00:00.772Z,100.0
2019-02-11T01:01:02.157Z,100.0
2019-02-11T01:02:03.541Z,100.0
2019-02-11T01:03:04.930Z,100.0
2019-02-11T01:04:06.315Z,100.0
2019-02-11T01:05:07.698Z,100.0
2019-02-11T01:06:09.083Z,100.0
2019-02-11T01:07:10.477Z,100.0
2019-02-11T01:08:11.885Z,100.0
2019-02-11T01:09:13.241Z,100.0
2019-02-11T01:10:14.626Z,100.0
2019-02-11T01:11:16.023Z,100.0
2019-02-11T01:12:17.400Z,100.0
2019-02-11T01:13:26.212Z,100.0
2019-02-11T01:14:20.136Z,100.0
2019-02-11T01:15:21.522Z,100.0
2019-02-11T01:16:22.911Z,100.0
2019-02-11T01:17:24.304Z,100.0
2019-02-11T01:18:25.687Z,100.0
2019-02-11T01:19:27.067Z,100.0
2019-02-11T01:20:28.449Z,100.0
2019-02-11T01:21:29.836Z,100.0
2019-02-11T01:22:31.221Z,100.0
2019-02-11T01:23:32.606Z,100.0
2019-02-11T01:24:33.995Z,100.0
2019-02-11T01:25:35.379Z,100.0
2019-02-11T01:26:36.780Z,100.0
2019-02-11T01:27:38.169Z,100.0
2019-02-11T01:28:39.556Z,100.0
2019-02-11T01:29:40.944Z,100.0
2019-02-11T01:30:42.333Z,100.0
2019-02-11T01:31:43.723Z,100.0
2019-02-11T01:32:45.107Z,100.0
2019-02-11T01:33:46.490Z,100.0
2019-02-11T01:34:47.870Z,100.0
2019-02-11T01:35:49.289Z,100.0
2019-02-11T01:36:50.675Z,100.0
2019-02-11T01:37:52.062Z,100.0
2019-02-11T01:38:53.473Z,100.0
2019-02-11T01:39:54.853Z,100.0
2019-02-11T01:40:56.232Z,100.0
2019-02-11T01:41:57.618Z,100.0
2019-02-11T01:42:58.999Z,100.0
2019-02-11T01:44:00.388Z,100.0
2019-02-11T01:45:01.775Z,100.0
2019-02-11T01:46:03.155Z,100.0
2019-02-11T01:47:04.543Z,100.0
2019-02-11T01:48:05.925Z,100.0
2019-02-11T01:49:07.304Z,100.0
2019-02-11T01:50:08.691Z,100.0
2019-02-11T01:51:10.077Z,100.0
2019-02-11T01:52:11.465Z,100.0
2019-02-11T01:53:12.851Z,100.0
2019-02-11T01:54:14.241Z,100.0
2019-02-11T01:55:15.628Z,100.0
2019-02-11T01:56:17.010Z,100.0
2019-02-11T01:57:18.400Z,100.0
2019-02-11T01:58:19.788Z,100.0
2019-02-11T01:59:21.175Z,100.0
2019-02-11T02:00:22.560Z,100.0
2019-02-11T02:01:23.946Z,100.0
2019-02-11T02:02:25.337Z,100.0
2019-02-11T02:03:26.757Z,100.0
2019-02-11T02:04:28.135Z,100.0
2019-02-11T02:05:29.517Z,100.0
2019-02-11T02:06:30.906Z,100.0
2019-02-11T02:07:32.309Z,100.0
2019-02-11T02:08:33.686Z,100.0
2019-02-11T02:09:35.072Z,100.0
2019-02-11T02:10:36.461Z,100.0
2019-02-11T02:11:37.849Z,100.0
2019-02-11T02:12:39.237Z,100.0
2019-02-11T02:13:44.915Z,100.0
2019-02-11T02:14:41.970Z,100.0
2019-02-11T02:15:43.354Z,100.0
2019-02-11T02:16:44.770Z,100.0
2019-02-11T02:17:46.156Z,100.0
2019-02-11T02:18:47.541Z,100.0
2019-02-11T02:19:48.930Z,100.0
2019-02-11T02:20:50.314Z,100.0
2019-02-11T02:21:51.701Z,100.0
2019-02-11T02:22:53.090Z,100.0
2019-02-11T02:23:54.478Z,100.0
2019-02-11T02:24:55.888Z,100.0
2019-02-11T02:25:57.318Z,100.0
2019-02-11T02:26:58.700Z,100.0
2019-02-11T02:28:00.148Z,100.0
2019-02-11T02:29:01.648Z,100.0
2019-02-11T02:30:03.029Z,100.0
2019-02-11T02:31:04.409Z,100.0
2019-02-11T02:32:05.793Z,100.0
2019-02-11T02:33:07.178Z,100.0
2019-02-11T02:34:08.569Z,100.0
2019-02-11T02:35:09.947Z,100.0
2019-02-11T02:36:11.336Z,100.0
2019-02-11T02:37:12.714Z,100.0
2019-02-11T02:38:14.105Z,100.0
2019-02-11T02:39:15.543Z,100.0
2019-02-11T02:40:16.929Z,100.0
2019-02-11T02:41:18.310Z,100.0
2019-02-11T02:42:19.692Z,100.0
2019-02-11T02:43:21.077Z,100.0
2019-02-11T02:44:22.461Z,100.0
2019-02-11T02:45:23.843Z,100.0
2019-02-11T02:46:25.230Z,100.0
2019-02-11T02:47:26.620Z,100.0
2019-02-11T02:48:28.003Z,100.0
2019-02-11T02:49:29.391Z,100.0
2019-02-11T02:50:30.777Z,100.0
2019-02-11T02:51:32.160Z,100.0
2019-02-11T02:52:33.546Z,100.0
2019-02-11T02:53:34.930Z,100.0
2019-02-11T02:54:36.320Z,100.0
2019-02-11T02:55:37.700Z,100.0
2019-02-11T02:56:39.093Z,100.0
2019-02-11T02:57:40.473Z,100.0
2019-02-11T02:58:41.859Z,100.0
2019-02-11T02:59:43.244Z,100.0
2019-02-11T03:00:44.626Z,100.0
2019-02-11T03:01:46.016Z,100.0
2019-02-11T03:02:47.402Z,100.0
2019-02-11T03:03:48.787Z,100.0
2019-02-11T03:04:50.170Z,100.0
2019-02-11T03:05:53.051Z,100.0
2019-02-11T03:06:52.904Z,100.0
2019-02-11T03:07:54.288Z,100.0
2019-02-11T03:08:55.671Z,100.0
2019-02-11T03:09:57.055Z,100.0
2019-02-11T03:10:58.472Z,100.0
2019-02-11T03:11:59.859Z,100.0
2019-02-11T03:13:01.242Z,100.0
2019-02-11T03:14:05.834Z,100.0
2019-02-11T03:15:03.980Z,100.0
2019-02-11T03:16:05.360Z,100.0
2019-02-11T03:17:06.799Z,100.0
2019-02-11T03:18:08.183Z,100.0
2019-02-11T03:19:09.571Z,100.0
2019-02-11T03:20:10.959Z,100.0
2019-02-11T03:21:12.349Z,100.0
2019-02-11T03:22:13.738Z,100.0
2019-02-11T03:23:15.122Z,100.0
2019-02-11T03:24:16.506Z,100.0
2019-02-11T03:25:17.887Z,100.0
2019-02-11T03:26:19.279Z,100.0
2019-02-11T03:27:20.662Z,100.0
2019-02-11T03:28:22.052Z,100.0
2019-02-11T03:29:23.435Z,100.0
2019-02-11T03:30:24.832Z,100.0
2019-02-11T03:31:26.221Z,100.0
2019-02-11T03:32:27.605Z,100.0
2019-02-11T03:33:29.002Z,100.0
2019-02-11T03:34:30.380Z,100.0
2019-02-11T03:35:31.763Z,100.0
2019-02-11T03:36:33.152Z,100.0
2019-02-11T03:37:34.568Z,100.0
2019-02-11T03:38:35.969Z,100.0
2019-02-11T03:39:37.356Z,100.0
2019-02-11T03:40:38.742Z,100.0
2019-02-11T03:41:40.113Z,100.0
2019-02-11T03:42:41.493Z,100.0
2019-02-11T03:43:42.878Z,100.0
2019-02-11T03:44:44.261Z,100.0
2019-02-11T03:45:45.644Z,100.0
2019-02-11T03:46:47.030Z,100.0
2019-02-11T03:47:48.416Z,100.0
2019-02-11T03:48:49.809Z,100.0
2019-02-11T03:49:51.192Z,100.0
2019-02-11T03:50:52.575Z,100.0
2019-02-11T03:51:53.983Z,100.0
2019-02-11T03:52:55.370Z,100.0
2019-02-11T03:53:56.766Z,100.0
2019-02-11T03:54:58.157Z,100.0
2019-02-11T03:55:59.526Z,100.0
2019-02-11T03:57:00.908Z,100.0
2019-02-11T03:58:02.292Z,100.0
2019-02-11T03:59:03.675Z,100.0
2019-02-11T04:00:05.062Z,100.0
2019-02-11T04:01:06.451Z,100.0
2019-02-11T04:02:07.844Z,100.0
2019-02-11T04:03:09.267Z,100.0
2019-02-11T04:04:10.652Z,100.0
2019-02-11T04:05:12.037Z,100.0
2019-02-11T04:06:13.536Z,100.0
2019-02-11T04:07:14.984Z,100.0
2019-02-11T04:08:16.391Z,100.0
2019-02-11T04:09:17.762Z,100.0
2019-02-11T04:10:19.151Z,100.0
2019-02-11T04:11:20.532Z,100.0
2019-02-11T04:12:21.920Z,100.0
2019-02-11T04:13:23.303Z,100.0
2019-02-11T04:14:25.239Z,100.0
2019-02-11T04:15:26.041Z,100.0
2019-02-11T04:16:27.433Z,100.0
2019-02-11T04:17:28.857Z,100.0
2019-02-11T04:18:30.247Z,100.0
2019-02-11T04:19:31.633Z,100.0
2019-02-11T04:20:33.018Z,100.0
2019-02-11T04:21:34.403Z,100.0
2019-02-11T04:22:35.788Z,100.0
2019-02-11T04:23:37.171Z,100.0
2019-02-11T04:24:38.549Z,100.0
2019-02-11T04:25:39.991Z,100.0
2019-02-11T04:26:41.374Z,100.0
2019-02-11T04:27:42.760Z,100.0
2019-02-11T04:28:44.144Z,100.0
2019-02-11T04:29:45.525Z,100.0
2019-02-11T04:30:46.920Z,100.0
2019-02-11T04:31:48.295Z,100.0
2019-02-11T04:32:49.688Z,100.0
2019-02-11T04:33:51.075Z,100.0
2019-02-11T04:34:52.458Z,100.0
2019-02-11T04:35:53.871Z,100.0
2019-02-11T04:36:55.256Z,100.0
2019-02-11T04:37:56.649Z,100.0
2019-02-11T04:38:58.036Z,100.0
2019-02-11T04:39:59.438Z,100.0
2019-02-11T04:41:00.811Z,100.0
2019-02-11T04:42:02.203Z,100.0
2019-02-11T04:43:03.583Z,100.0
2019-02-11T04:44:04.970Z,100.0
2019-02-11T04:45:06.360Z,100.0
2019-02-11T04:46:07.742Z,100.0
2019-02-11T04:47:09.129Z,100.0
2019-02-11T04:48:10.544Z,100.0
2019-02-11T04:49:11.927Z,100.0
2019-02-11T04:50:13.316Z,100.0
2019-02-11T04:51:14.701Z,100.0
2019-02-11T04:52:16.089Z,100.0
2019-02-11T04:53:17.471Z,100.0
2019-02-11T04:54:18.855Z,100.0
2019-02-11T04:55:20.278Z,100.0
2019-02-11T04:56:21.658Z,100.0
2019-02-11T04:57:23.049Z,100.0
2019-02-11T04:58:24.432Z,100.0
2019-02-11T04:59:25.818Z,100.0
2019-02-11T05:00:27.209Z,100.0
2019-02-11T05:01:28.592Z,100.0
2019-02-11T05:02:29.981Z,100.0
2019-02-11T05:03:31.379Z,100.0
2019-02-11T05:04:32.763Z,100.0
2019-02-11T05:05:34.153Z,100.0
2019-02-11T05:06:35.538Z,100.0
2019-02-11T05:07:36.921Z,100.0
2019-02-11T05:08:38.304Z,100.0
2019-02-11T05:09:39.686Z,100.0
2019-02-11T05:10:41.159Z,100.0
2019-02-11T05:11:42.528Z,100.0
2019-02-11T05:12:43.913Z,100.0
2019-02-11T05:13:45.297Z,100.0
2019-02-11T05:14:46.689Z,100.0
2019-02-11T05:15:48.084Z,100.0
2019-02-11T05:16:49.470Z,100.0
2019-02-11T05:17:50.862Z,100.0
2019-02-11T05:18:52.252Z,100.0
2019-02-11T05:19:53.629Z,100.0
2019-02-11T05:20:55.015Z,100.0
2019-02-11T05:21:56.402Z,100.0
2019-02-11T05:22:57.789Z,100.0
2019-02-11T05:23:59.225Z,100.0
2019-02-11T05:25:00.608Z,100.0
2019-02-11T05:26:01.988Z,100.0
2019-02-11T05:27:03.390Z,100.0
2019-02-11T05:28:04.763Z,100.0
2019-02-11T05:29:06.150Z,100.0
2019-02-11T05:30:07.532Z,100.0
2019-02-11T05:31:08.917Z,100.0
2019-02-11T05:32:10.308Z,100.0
2019-02-11T05:33:11.813Z,100.0
2019-02-11T05:34:13.097Z,100.0
2019-02-11T05:35:14.505Z,100.0
2019-02-11T05:36:15.869Z,100.0
2019-02-11T05:37:17.254Z,100.0
2019-02-11T05:38:18.640Z,100.0
2019-02-11T05:39:20.018Z,100.0
2019-02-11T05:40:21.404Z,100.0
2019-02-11T05:41:22.786Z,100.0
2019-02-11T05:42:24.169Z,100.0
2019-02-11T05:43:25.547Z,100.0
2019-02-11T05:44:26.934Z,100.0
2019-02-11T05:45:28.411Z,100.0
2019-02-11T05:46:29.812Z,100.0
2019-02-11T05:47:31.194Z,100.0
2019-02-11T05:48:32.581Z,100.0
2019-02-11T05:49:33.969Z,100.0
2019-02-11T05:50:35.356Z,100.0
2019-02-11T05:51:36.734Z,100.0
2019-02-11T05:52:38.117Z,100.0
2019-02-11T05:53:39.507Z,100.0
2019-02-11T05:54:40.912Z,100.0
2019-02-11T05:55:42.304Z,100.0
2019-02-11T05:56:43.693Z,100.0
2019-02-11T05:57:45.074Z,100.0
2019-02-11T05:58:46.492Z,100.0
2019-02-11T05:59:47.882Z,100.0
2019-02-11T06:00:49.271Z,100.0
2019-02-11T06:01:50.660Z,100.0
2019-02-11T06:02:52.055Z,100.0
2019-02-11T06:03:53.454Z,100.0
2019-02-11T06:04:54.833Z,100.0
2019-02-11T06:05:56.219Z,100.0
2019-02-11T06:06:57.604Z,100.0
2019-02-11T06:07:58.988Z,100.0
2019-02-11T06:09:00.375Z,100.0
2019-02-11T06:10:01.761Z,100.0
2019-02-11T06:11:03.142Z,100.0
2019-02-11T06:12:04.528Z,100.0
2019-02-11T06:13:05.911Z,100.0
2019-02-11T06:14:07.344Z,100.0
2019-02-11T06:15:08.734Z,100.0
2019-02-11T06:16:10.120Z,100.0
2019-02-11T06:17:11.503Z,100.0
2019-02-11T06:18:12.886Z,100.0
2019-02-11T06:19:14.270Z,100.0
2019-02-11T06:20:15.659Z,100.0
2019-02-11T06:21:17.041Z,100.0
2019-02-11T06:22:18.431Z,100.0
2019-02-11T06:23:19.822Z,100.0
2019-02-11T06:24:21.217Z,100.0
2019-02-11T06:25:22.605Z,100.0
2019-02-11T06:26:23.984Z,100.0
2019-02-11T06:27:25.371Z,100.0
2019-02-11T06:28:26.761Z,100.0
2019-02-11T06:29:28.152Z,100.0
2019-02-11T06:30:29.586Z,100.0
2019-02-11T06:31:30.965Z,100.0
2019-02-11T06:32:32.350Z,100.0
2019-02-11T06:33:33.728Z,100.0
2019-02-11T06:34:35.111Z,100.0
2019-02-11T06:35:36.497Z,100.0
2019-02-11T06:36:37.889Z,100.0
2019-02-11T06:37:39.335Z,100.0
2019-02-11T06:38:40.728Z,100.0
2019-02-11T06:39:42.116Z,100.0
2019-02-11T06:40:43.497Z,100.0
2019-02-11T06:41:44.881Z,100.0
2019-02-11T06:42:46.261Z,100.0
2019-02-11T06:43:47.655Z,100.0
2019-02-11T06:44:49.050Z,100.0
2019-02-11T06:45:50.441Z,100.0
2019-02-11T06:46:51.824Z,100.0
2019-02-11T06:47:53.208Z,100.0
2019-02-11T06:48:54.599Z,100.0
2019-02-11T06:49:55.981Z,100.0
2019-02-11T06:50:57.370Z,100.0
2019-02-11T06:51:58.761Z,100.0
2019-02-11T06:53:00.152Z,100.0
2019-02-11T06:54:01.538Z,100.0
2019-02-11T06:55:02.925Z,100.0
2019-02-11T06:56:04.315Z,100.0
2019-02-11T06:57:05.694Z,100.0
2019-02-11T06:58:07.079Z,100.0
2019-02-11T06:59:08.473Z,100.0
2019-02-11T07:00:09.877Z,100.0
2019-02-11T07:01:11.263Z,100.0
2019-02-11T07:02:12.648Z,100.0
2019-02-11T07:03:14.035Z,100.0
2019-02-11T07:04:15.419Z,100.0
2019-02-11T07:05:16.802Z,100.0
2019-02-11T07:06:18.193Z,100.0
2019-02-11T07:07:19.580Z,100.0
2019-02-11T07:08:20.969Z,100.0
2019-02-11T07:09:22.361Z,100.0
2019-02-11T07:10:23.747Z,100.0
2019-02-11T07:11:25.164Z,100.0
2019-02-11T07:12:26.566Z,100.0
2019-02-11T07:13:28.021Z,100.0
2019-02-11T07:14:29.408Z,100.0
2019-02-11T07:15:30.800Z,100.0
2019-02-11T07:16:32.181Z,100.0
2019-02-11T07:17:33.570Z,100.0
2019-02-11T07:18:37.042Z,100.0
2019-02-11T07:19:36.309Z,100.0
2019-02-11T07:20:37.696Z,100.0
2019-02-11T07:21:39.096Z,100.0
2019-02-11T07:22:40.478Z,100.0
2019-02-11T07:23:41.871Z,100.0
2019-02-11T07:24:43.253Z,100.0
2019-02-11T07:25:44.646Z,100.0
2019-02-11T07:26:46.033Z,100.0
2019-02-11T07:27:47.427Z,100.0
2019-02-11T07:28:48.911Z,100.0
2019-02-11T07:29:50.303Z,100.0
2019-02-11T07:30:51.689Z,100.0
2019-02-11T07:31:53.082Z,100.0
2019-02-11T07:32:54.470Z,100.0
2019-02-11T07:33:55.860Z,100.0
2019-02-11T07:34:57.252Z,100.0
2019-02-11T07:35:58.645Z,100.0
2019-02-11T07:37:00.034Z,100.0
2019-02-11T07:38:01.420Z,100.0
2019-02-11T07:39:02.811Z,100.0
2019-02-11T07:40:04.199Z,100.0
2019-02-11T07:41:05.585Z,100.0
2019-02-11T07:42:06.980Z,100.0
2019-02-11T07:43:08.365Z,100.0
2019-02-11T07:44:09.756Z,100.0
2019-02-11T07:45:11.135Z,100.0
2019-02-11T07:46:12.528Z,100.0
2019-02-11T07:47:13.917Z,100.0
2019-02-11T07:48:15.324Z,100.0
2019-02-11T07:49:16.718Z,100.0
2019-02-11T07:50:18.108Z,100.0
2019-02-11T07:51:19.564Z,100.0
2019-02-11T07:52:26.626Z,100.0
2019-02-11T07:53:22.335Z,100.0
2019-02-11T07:54:23.726Z,100.0
2019-02-11T07:55:25.119Z,100.0
2019-02-11T07:56:26.571Z,100.0
2019-02-11T07:57:27.962Z,100.0
2019-02-11T07:58:29.347Z,100.0
2019-02-11T07:59:30.737Z,100.0
2019-02-11T08:00:32.146Z,100.0
2019-02-11T08:01:33.510Z,100.0
2019-02-11T08:02:34.904Z,100.0
2019-02-11T08:03:36.294Z,100.0
2019-02-11T08:04:37.684Z,100.0
2019-02-11T08:05:39.075Z,100.0
2019-02-11T08:06:40.470Z,100.0
2019-02-11T08:07:41.856Z,100.0
2019-02-11T08:08:43.241Z,100.0
2019-02-11T08:09:44.628Z,100.0
2019-02-11T08:10:46.014Z,100.0
2019-02-11T08:11:47.400Z,100.0
2019-02-11T08:12:48.795Z,100.0
2019-02-11T08:13:50.183Z,100.0
2019-02-11T08:14:51.576Z,100.0
2019-02-11T08:15:52.969Z,100.0
2019-02-11T08:16:54.365Z,100.0
2019-02-11T08:17:55.829Z,100.0
2019-02-11T08:18:57.215Z,100.0
2019-02-11T08:19:58.613Z,100.0
2019-02-11T08:21:00.001Z,100.0
2019-02-11T08:22:01.387Z,100.0
2019-02-11T08:23:10.997Z,100.0
2019-02-11T08:24:04.128Z,100.0
2019-02-11T08:25:05.514Z,100.0
2019-02-11T08:26:06.921Z,100.0
2019-02-11T08:27:08.312Z,100.0
2019-02-11T08:28:09.699Z,100.0
2019-02-11T08:29:11.090Z,100.0
2019-02-11T08:30:12.484Z,100.0
2019-02-11T08:31:13.874Z,100.0
2019-02-11T08:32:15.265Z,100.0
2019-02-11T08:33:16.655Z,100.0
2019-02-11T08:34:18.045Z,100.0
2019-02-11T08:35:19.433Z,100.0
2019-02-11T08:36:20.819Z,100.0
2019-02-11T08:37:22.205Z,100.0
2019-02-11T08:38:23.602Z,100.0
2019-02-11T08:39:24.990Z,100.0
2019-02-11T08:40:26.381Z,100.0
2019-02-11T08:41:27.778Z,100.0
2019-02-11T08:42:29.161Z,100.0
2019-02-11T08:43:30.546Z,100.0
2019-02-11T08:44:33.613Z,100.0
2019-02-11T08:45:33.295Z,100.0
2019-02-11T08:46:34.682Z,100.0
2019-02-11T08:47:36.074Z,100.0
2019-02-11T08:48:37.472Z,100.0
2019-02-11T08:49:38.865Z,100.0
2019-02-11T08:50:40.256Z,100.0
2019-02-11T08:51:41.645Z,100.0
2019-02-11T08:52:43.044Z,100.0
2019-02-11T08:53:44.433Z,100.0
2019-02-11T08:54:45.821Z,100.0
2019-02-11T08:55:47.218Z,100.0
2019-02-11T08:56:48.602Z,100.0
2019-02-11T08:57:49.990Z,100.0
2019-02-11T08:58:51.386Z,100.0
2019-02-11T08:59:52.782Z,100.0
2019-02-11T09:00:54.176Z,100.0
2019-02-11T09:01:55.570Z,100.0
2019-02-11T09:02:56.963Z,100.0
2019-02-11T09:03:58.349Z,100.0
2019-02-11T09:04:59.739Z,100.0
2019-02-11T09:06:01.134Z,100.0
2019-02-11T09:07:02.532Z,100.0
2019-02-11T09:08:04.040Z,100.0
2019-02-11T09:09:05.437Z,100.0
2019-02-11T09:10:06.872Z,100.0
2019-02-11T09:11:08.225Z,100.0
2019-02-11T09:12:09.622Z,100.0
2019-02-11T09:13:11.011Z,100.0
2019-02-11T09:14:12.402Z,100.0
2019-02-11T09:15:13.797Z,100.0
2019-02-11T09:16:15.191Z,100.0
2019-02-11T09:17:16.590Z,100.0
2019-02-11T09:18:17.984Z,100.0
2019-02-11T09:19:19.379Z,100.0
2019-02-11T09:20:20.765Z,100.0
2019-02-11T09:21:22.155Z,100.0
2019-02-11T09:22:23.546Z,100.0
2019-02-11T09:23:24.959Z,100.0
2019-02-11T09:24:26.348Z,100.0
2019-02-11T09:25:27.740Z,100.0
2019-02-11T09:26:29.132Z,100.0
2019-02-11T09:27:30.523Z,100.0
2019-02-11T09:28:31.914Z,100.0
2019-02-11T09:29:33.304Z,100.0
2019-02-11T09:30:34.705Z,100.0
2019-02-11T09:31:36.099Z,100.0
2019-02-11T09:32:37.503Z,100.0
2019-02-11T09:33:38.897Z,100.0
2019-02-11T09:34:40.287Z,100.0
2019-02-11T09:35:41.675Z,100.0
2019-02-11T09:36:43.072Z,100.0
2019-02-11T09:37:44.471Z,100.0
2019-02-11T09:38:45.872Z,100.0
2019-02-11T09:39:47.263Z,100.0
2019-02-11T09:40:48.654Z,100.0
2019-02-11T09:41:50.044Z,100.0
2019-02-11T09:42:51.444Z,100.0
2019-02-11T09:43:52.838Z,100.0
2019-02-11T09:44:54.230Z,100.0
2019-02-11T09:46:03.558Z,100.0
2019-02-11T09:46:56.978Z,100.0
2019-02-11T09:47:58.379Z,100.0
2019-02-11T09:48:59.766Z,100.0
2019-02-11T09:50:01.170Z,100.0
2019-02-11T09:51:02.568Z,100.0
2019-02-11T09:52:03.961Z,100.0
2019-02-11T09:53:05.354Z,100.0
2019-02-11T09:54:06.743Z,100.0
2019-02-11T09:55:08.134Z,100.0
2019-02-11T09:56:09.548Z,100.0
2019-02-11T09:57:10.933Z,100.0
2019-02-11T09:58:12.392Z,100.0
2019-02-11T09:59:13.789Z,100.0
2019-02-11T10:00:15.187Z,100.0
2019-02-11T10:01:16.580Z,100.0
2019-02-11T10:02:17.971Z,100.0
2019-02-11T10:03:19.365Z,100.0
2019-02-11T10:04:20.756Z,100.0
2019-02-11T10:05:22.152Z,100.0
2019-02-11T10:06:23.545Z,100.0
2019-02-11T10:07:24.940Z,100.0
2019-02-11T10:08:26.328Z,100.0
2019-02-11T10:09:27.719Z,100.0
2019-02-11T10:10:29.109Z,100.0
2019-02-11T10:11:30.502Z,100.0
2019-02-11T10:12:31.900Z,100.0
2019-02-11T10:13:33.298Z,100.0
2019-02-11T10:14:34.693Z,100.0
2019-02-11T10:15:36.083Z,100.0
2019-02-11T10:16:37.483Z,100.0
2019-02-11T10:17:38.875Z,100.0
2019-02-11T10:18:40.271Z,100.0
2019-02-11T10:19:41.663Z,100.0
2019-02-11T10:20:43.053Z,100.0
2019-02-11T10:21:44.443Z,100.0
2019-02-11T10:22:45.829Z,100.0
2019-02-11T10:23:47.226Z,100.0
2019-02-11T10:24:48.618Z,100.0
2019-02-11T10:25:50.006Z,100.0
2019-02-11T10:26:51.400Z,100.0
2019-02-11T10:27:52.791Z,100.0
2019-02-11T10:28:54.182Z,100.0
2019-02-11T10:29:55.570Z,100.0
2019-02-11T10:30:56.961Z,100.0
2019-02-11T10:31:58.369Z,100.0
2019-02-11T10:32:59.749Z,100.0
2019-02-11T10:34:01.144Z,100.0
2019-02-11T10:35:02.545Z,100.0
2019-02-11T10:36:03.985Z,100.0
2019-02-11T10:37:05.372Z,100.0
2019-02-11T10:38:06.761Z,100.0
2019-02-11T10:39:08.163Z,100.0
2019-02-11T10:40:09.574Z,100.0
2019-02-11T10:41:10.963Z,100.0
2019-02-11T10:42:12.354Z,100.0
2019-02-11T10:43:13.746Z,100.0
2019-02-11T10:44:15.136Z,100.0
2019-02-11T10:45:16.533Z,100.0
2019-02-11T10:46:20.949Z,100.0
2019-02-11T10:47:19.421Z,100.0
2019-02-11T10:48:20.817Z,100.0
2019-02-11T10:49:22.211Z,100.0
2019-02-11T10:50:23.607Z,100.0
2019-02-11T10:51:24.997Z,100.0
2019-02-11T10:52:26.384Z,100.0
2019-02-11T10:53:27.774Z,100.0
2019-02-11T10:54:29.162Z,100.0
2019-02-11T10:55:30.550Z,100.0
2019-02-11T10:56:31.953Z,100.0
2019-02-11T10:57:33.337Z,100.0
2019-02-11T10:58:34.725Z,100.0
2019-02-11T10:59:36.119Z,100.0
2019-02-11T11:00:37.511Z,100.0
2019-02-11T11:01:38.903Z,100.0
2019-02-11T11:02:40.294Z,100.0
2019-02-11T11:03:41.693Z,100.0
2019-02-11T11:04:43.099Z,100.0
2019-02-11T11:05:44.493Z,100.0
2019-02-11T11:06:45.887Z,100.0
2019-02-11T11:07:47.407Z,100.0
2019-02-11T11:08:48.802Z,100.0
2019-02-11T11:09:50.194Z,100.0
2019-02-11T11:10:51.588Z,100.0
2019-02-11T11:11:52.986Z,100.0
2019-02-11T11:12:54.384Z,100.0
2019-02-11T11:13:55.800Z,100.0
2019-02-11T11:14:57.197Z,100.0
2019-02-11T11:15:58.591Z,100.0
2019-02-11T11:17:00.000Z,100.0
2019-02-11T11:18:01.396Z,100.0
2019-02-11T11:19:02.793Z,100.0
2019-02-11T11:20:04.191Z,100.0
2019-02-11T11:21:05.582Z,100.0
2019-02-11T11:22:06.975Z,100.0
2019-02-11T11:23:08.367Z,100.0
2019-02-11T11:24:09.764Z,100.0
2019-02-11T11:25:11.168Z,100.0
2019-02-11T11:26:12.557Z,100.0
2019-02-11T11:27:13.946Z,100.0
2019-02-11T11:28:15.340Z,100.0
2019-02-11T11:29:16.736Z,100.0
2019-02-11T11:30:18.129Z,100.0
2019-02-11T11:31:19.520Z,100.0
2019-02-11T11:32:20.907Z,100.0
2019-02-11T11:33:22.302Z,100.0
2019-02-11T11:34:23.693Z,100.0
2019-02-11T11:35:25.080Z,100.0
2019-02-11T11:36:26.553Z,100.0
2019-02-11T11:37:27.962Z,100.0
2019-02-11T11:38:29.357Z,100.0
2019-02-11T11:39:30.749Z,100.0
2019-02-11T11:40:32.160Z,100.0
2019-02-11T11:41:33.543Z,100.0
2019-02-11T11:42:34.939Z,100.0
2019-02-11T11:43:36.331Z,100.0
2019-02-11T11:44:37.727Z,100.0
2019-02-11T11:45:39.139Z,100.0
2019-02-11T11:46:46.934Z,100.0
2019-02-11T11:47:41.895Z,100.0
2019-02-11T11:48:43.289Z,100.0
2019-02-11T11:49:44.680Z,100.0
2019-02-11T11:50:46.067Z,100.0
2019-02-11T11:51:47.463Z,100.0
2019-02-11T11:52:48.861Z,100.0
2019-02-11T11:53:50.252Z,100.0
2019-02-11T11:54:51.650Z,100.0
2019-02-11T11:55:53.256Z,100.0
2019-02-11T11:56:54.412Z,100.0
2019-02-11T11:57:55.809Z,100.0
2019-02-11T11:58:57.208Z,100.0
2019-02-11T11:59:58.600Z,100.0
2019-02-11T12:01:00.009Z,100.0
2019-02-11T12:02:01.404Z,100.0
2019-02-11T12:03:04.668Z,100.0
2019-02-11T12:04:06.166Z,100.0
2019-02-11T12:05:05.514Z,100.0
2019-02-11T12:06:06.918Z,100.0
2019-02-11T12:07:08.325Z,100.0
2019-02-11T12:08:09.711Z,100.0
2019-02-11T12:09:11.110Z,100.0
2019-02-11T12:10:12.503Z,100.0
2019-02-11T12:11:13.890Z,100.0
2019-02-11T12:12:15.289Z,100.0
2019-02-11T12:13:22.610Z,100.0
2019-02-11T12:14:18.052Z,100.0
2019-02-11T12:15:19.445Z,100.0
2019-02-11T12:16:20.976Z,100.0
2019-02-11T12:17:22.197Z,100.0
2019-02-11T12:18:23.588Z,100.0
2019-02-11T12:19:24.985Z,100.0
2019-02-11T12:20:26.373Z,100.0
2019-02-11T12:21:27.774Z,100.0
2019-02-11T12:22:29.159Z,100.0
2019-02-11T12:23:30.579Z,100.0
2019-02-11T12:24:31.946Z,100.0
2019-02-11T12:25:33.345Z,100.0
2019-02-11T12:26:34.863Z,100.0
2019-02-11T12:27:36.239Z,100.0
2019-02-11T12:28:37.627Z,100.0
2019-02-11T12:29:39.024Z,100.0
2019-02-11T12:30:40.417Z,100.0
2019-02-11T12:31:41.816Z,100.0
2019-02-11T12:32:43.212Z,100.0
2019-02-11T12:33:44.610Z,100.0
2019-02-11T12:34:46.011Z,100.0
2019-02-11T12:35:47.388Z,100.0
2019-02-11T12:36:48.787Z,98.6
2019-02-11T12:37:50.181Z,98.7
2019-02-11T12:38:51.569Z,98.9
2019-02-11T12:39:52.966Z,98.7
2019-02-11T12:40:54.362Z,98.6
2019-02-11T12:41:55.765Z,97.9
2019-02-11T12:42:57.159Z,98.3
2019-02-11T12:43:58.558Z,98.9
2019-02-11T12:44:59.944Z,98.2
2019-02-11T12:46:01.346Z,97.9
2019-02-11T12:47:13.497Z,97.9
2019-02-11T12:48:04.106Z,98.4
2019-02-11T12:49:05.509Z,98.4
2019-02-11T12:50:06.897Z,97.1
2019-02-11T12:51:08.298Z,97.1
2019-02-11T12:52:09.689Z,96.6
2019-02-11T12:53:11.087Z,97.3
2019-02-11T12:54:12.467Z,97.3
2019-02-11T12:55:13.872Z,97.6
2019-02-11T12:56:15.261Z,99.3
2019-02-11T12:57:16.651Z,100.0
2019-02-11T12:58:18.052Z,100.0
2019-02-11T12:59:19.440Z,100.0
2019-02-11T13:00:20.851Z,100.0
2019-02-11T13:01:22.226Z,100.0
2019-02-11T13:02:23.626Z,100.0
2019-02-11T13:03:25.016Z,100.0
2019-02-11T13:04:26.408Z,100.0
2019-02-11T13:05:44.384Z,100.0
2019-02-11T13:06:29.157Z,100.0
2019-02-11T13:07:30.551Z,100.0
2019-02-11T13:08:31.939Z,100.0
2019-02-11T13:09:33.338Z,100.0
2019-02-11T13:10:34.735Z,100.0
2019-02-11T13:11:36.130Z,100.0